sensor_id;sensor_type;location;lat;lon;timestamp;temperature;humidity
24836;DHT22;12915;57.650;12.044;2022-12-24T20:08:06;-2.90;99.90
24836;DHT22;12915;57.650;12.044;2022-12-24T20:10:41;1.80;99.90
24836;DHT22;12915;57.650;12.044;2022-12-24T20:13:07;1.90;99.90
24836;DHT22;12915;57.650;12.044;2022-12-24T20:15:42;2.00;99.90
24836;DHT22;12915;57.650;12.044;2022-12-24T20:18:15;2.00;99.90
24836;DHT22;12915;57.650;12.044;2022-12-24T20:21:06;1.90;99.90
24836;DHT22;12915;57.650;12.044;2022-12-24T20:30:27;1.80;99.90
24836;DHT22;12915;57.650;12.044;2022-12-24T20:32:53;1.90;99.90
24836;DHT22;12915;57.650;12.044;2022-12-24T20:35:20;1.90;99.90
24836;DHT22;12915;57.650;12.044;2022-12-24T20:37:46;2.10;99.90
24836;DHT22;12915;57.650;12.044;2022-12-24T20:40:12;2.10;99.90
24836;DHT22;12915;57.650;12.044;2022-12-24T20:42:38;2.10;99.90
24836;DHT22;12915;57.650;12.044;2022-12-24T20:45:04;2.20;99.90
24836;DHT22;12915;57.650;12.044;2022-12-24T20:47:31;2.20;99.90
24836;DHT22;12915;57.650;12.044;2022-12-24T20:49:56;2.30;99.90
24836;DHT22;12915;57.650;12.044;2022-12-24T20:52:22;2.20;99.90
24836;DHT22;12915;57.650;12.044;2022-12-24T20:54:48;2.00;99.90
24836;DHT22;12915;57.650;12.044;2022-12-24T20:57:16;2.10;99.90
24836;DHT22;12915;57.650;12.044;2022-12-24T20:59:49;2.20;99.90
24836;DHT22;12915;57.650;12.044;2022-12-24T21:02:14;2.20;99.90
24836;DHT22;12915;57.650;12.044;2022-12-24T21:04:41;2.10;99.90
24836;DHT22;12915;57.650;12.044;2022-12-24T21:07:07;2.00;99.90
24836;DHT22;12915;57.650;12.044;2022-12-24T21:09:33;1.80;99.90
24836;DHT22;12915;57.650;12.044;2022-12-24T21:12:00;1.90;99.90
24836;DHT22;12915;57.650;12.044;2022-12-24T21:14:44;1.90;99.90
24836;DHT22;12915;57.650;12.044;2022-12-24T21:17:25;2.00;99.90
24836;DHT22;12915;57.650;12.044;2022-12-24T21:19:56;2.00;99.90
24836;DHT22;12915;57.650;12.044;2022-12-24T21:22:31;2.00;99.90
24836;DHT22;12915;57.650;12.044;2022-12-24T21:25:18;1.90;99.90
24836;DHT22;12915;57.650;12.044;2022-12-24T21:27:52;2.10;99.90
24836;DHT22;12915;57.650;12.044;2022-12-24T21:30:22;1.90;99.90
24836;DHT22;12915;57.650;12.044;2022-12-24T21:32:48;1.90;99.90
24836;DHT22;12915;57.650;12.044;2022-12-24T21:35:15;1.80;99.90
24836;DHT22;12915;57.650;12.044;2022-12-24T21:37:42;1.90;99.90
24836;DHT22;12915;57.650;12.044;2022-12-24T21:40:09;2.10;99.90
24836;DHT22;12915;57.650;12.044;2022-12-24T21:42:42;2.10;99.90
24836;DHT22;12915;57.650;12.044;2022-12-24T21:56:25;2.30;99.90
24836;DHT22;12915;57.650;12.044;2022-12-24T22:09:14;2.50;99.90
24836;DHT22;12915;57.650;12.044;2022-12-24T22:11:58;2.60;99.90
24836;DHT22;12915;57.650;12.044;2022-12-24T22:14:25;2.50;99.90
24836;DHT22;12915;57.650;12.044;2022-12-24T22:19:27;2.50;99.90
24836;DHT22;12915;57.650;12.044;2022-12-24T22:21:52;2.50;99.90
24836;DHT22;12915;57.650;12.044;2022-12-24T22:32:13;2.20;99.90
24836;DHT22;12915;57.650;12.044;2022-12-24T22:34:41;2.20;99.90
24836;DHT22;12915;57.650;12.044;2022-12-24T22:37:09;2.10;99.90
24836;DHT22;12915;57.650;12.044;2022-12-24T22:42:25;2.20;99.90
24836;DHT22;12915;57.650;12.044;2022-12-24T22:57:57;2.40;99.90
24836;DHT22;12915;57.650;12.044;2022-12-24T23:03:12;2.60;99.90
24836;DHT22;12915;57.650;12.044;2022-12-24T23:06:03;2.60;99.90
24836;DHT22;12915;57.650;12.044;2022-12-24T23:08:49;2.60;99.90
24836;DHT22;12915;57.650;12.044;2022-12-24T23:11:19;2.60;99.90
24836;DHT22;12915;57.650;12.044;2022-12-24T23:13:56;2.70;99.90
24836;DHT22;12915;57.650;12.044;2022-12-24T23:17:13;2.70;99.90
24836;DHT22;12915;57.650;12.044;2022-12-24T23:19:47;2.50;99.90
